sensor_id;sensor_type;location;lat;lon;timestamp;pressure;altitude;pressure_sealevel;temperature
71081;BMP180;58740;50.672;18.690;2024-03-29T00:02:19;97588.60;;;9.76
71081;BMP180;58740;50.672;18.690;2024-03-29T00:04:52;97590.00;;;9.70
71081;BMP180;58740;50.672;18.690;2024-03-29T00:07:24;97598.40;;;9.70
71081;BMP180;58740;50.672;18.690;2024-03-29T00:09:57;97600.60;;;9.70
71081;BMP180;58740;50.672;18.690;2024-03-29T00:12:30;97605.80;;;9.68
71081;BMP180;58740;50.672;18.690;2024-03-29T00:15:02;97612.60;;;9.62
71081;BMP180;58740;50.672;18.690;2024-03-29T00:17:35;97620.00;;;9.60
71081;BMP180;58740;50.672;18.690;2024-03-29T00:20:10;97627.20;;;9.60
71081;BMP180;58740;50.672;18.690;2024-03-29T00:22:43;97621.00;;;9.56
71081;BMP180;58740;50.672;18.690;2024-03-29T00:25:16;97632.40;;;9.50
71081;BMP180;58740;50.672;18.690;2024-03-29T00:27:49;97637.60;;;9.50
71081;BMP180;58740;50.672;18.690;2024-03-29T00:30:22;97641.60;;;9.42
71081;BMP180;58740;50.672;18.690;2024-03-29T00:32:54;97648.00;;;9.40
71081;BMP180;58740;50.672;18.690;2024-03-29T00:35:27;97658.60;;;9.40
71081;BMP180;58740;50.672;18.690;2024-03-29T00:38:00;97670.80;;;9.40
71081;BMP180;58740;50.672;18.690;2024-03-29T00:40:32;97676.40;;;9.30
71081;BMP180;58740;50.672;18.690;2024-03-29T00:43:05;97678.20;;;9.30
71081;BMP180;58740;50.672;18.690;2024-03-29T00:45:37;97683.20;;;9.30
71081;BMP180;58740;50.672;18.690;2024-03-29T00:48:10;97683.60;;;9.30
71081;BMP180;58740;50.672;18.690;2024-03-29T00:50:42;97689.20;;;9.30
71081;BMP180;58740;50.672;18.690;2024-03-29T00:53:15;97696.20;;;9.20
71081;BMP180;58740;50.672;18.690;2024-03-29T00:55:47;97700.60;;;9.20
71081;BMP180;58740;50.672;18.690;2024-03-29T00:58:20;97710.20;;;9.20
71081;BMP180;58740;50.672;18.690;2024-03-29T01:00:52;97720.40;;;9.20
71081;BMP180;58740;50.672;18.690;2024-03-29T01:03:25;97728.40;;;9.10
71081;BMP180;58740;50.672;18.690;2024-03-29T01:05:59;97742.60;;;9.10
71081;BMP180;58740;50.672;18.690;2024-03-29T01:08:32;97751.80;;;9.10
71081;BMP180;58740;50.672;18.690;2024-03-29T01:11:05;97761.20;;;9.00
71081;BMP180;58740;50.672;18.690;2024-03-29T01:13:39;97762.00;;;9.00
71081;BMP180;58740;50.672;18.690;2024-03-29T01:16:12;97770.80;;;9.00
71081;BMP180;58740;50.672;18.690;2024-03-29T01:18:44;97774.60;;;8.90
71081;BMP180;58740;50.672;18.690;2024-03-29T01:21:18;97784.20;;;8.90
71081;BMP180;58740;50.672;18.690;2024-03-29T01:23:50;97789.80;;;8.84
71081;BMP180;58740;50.672;18.690;2024-03-29T01:26:23;97788.80;;;8.80
71081;BMP180;58740;50.672;18.690;2024-03-29T01:28:55;97792.20;;;8.80
71081;BMP180;58740;50.672;18.690;2024-03-29T01:31:28;97792.80;;;8.80
71081;BMP180;58740;50.672;18.690;2024-03-29T01:34:03;97798.40;;;8.76
71081;BMP180;58740;50.672;18.690;2024-03-29T01:36:35;97812.40;;;8.70
71081;BMP180;58740;50.672;18.690;2024-03-29T01:39:07;97810.80;;;8.70
71081;BMP180;58740;50.672;18.690;2024-03-29T01:41:47;97811.40;;;8.70
71081;BMP180;58740;50.672;18.690;2024-03-29T01:44:19;97822.20;;;8.64
71081;BMP180;58740;50.672;18.690;2024-03-29T01:46:51;97825.80;;;8.60
71081;BMP180;58740;50.672;18.690;2024-03-29T01:49:25;97828.20;;;8.60
71081;BMP180;58740;50.672;18.690;2024-03-29T01:51:58;97832.60;;;8.60
71081;BMP180;58740;50.672;18.690;2024-03-29T01:54:30;97832.60;;;8.56
71081;BMP180;58740;50.672;18.690;2024-03-29T01:57:04;97836.00;;;8.50
71081;BMP180;58740;50.672;18.690;2024-03-29T01:59:38;97845.20;;;8.50
71081;BMP180;58740;50.672;18.690;2024-03-29T02:02:14;97849.60;;;8.44
71081;BMP180;58740;50.672;18.690;2024-03-29T02:05:05;97859.20;;;8.40
71081;BMP180;58740;50.672;18.690;2024-03-29T02:07:39;97859.60;;;8.40
71081;BMP180;58740;50.672;18.690;2024-03-29T02:10:12;97861.80;;;8.40
71081;BMP180;58740;50.672;18.690;2024-03-29T02:12:45;97859.60;;;8.40
71081;BMP180;58740;50.672;18.690;2024-03-29T02:15:18;97872.80;;;8.30
71081;BMP180;58740;50.672;18.690;2024-03-29T02:17:50;97874.80;;;8.30
71081;BMP180;58740;50.672;18.690;2024-03-29T02:20:23;97876.60;;;8.30
71081;BMP180;58740;50.672;18.690;2024-03-29T02:23:16;97876.00;;;8.20
71081;BMP180;58740;50.672;18.690;2024-03-29T02:25:50;97884.40;;;8.20
71081;BMP180;58740;50.672;18.690;2024-03-29T02:28:23;97886.20;;;8.20
71081;BMP180;58740;50.672;18.690;2024-03-29T02:30:56;97894.60;;;8.20
71081;BMP180;58740;50.672;18.690;2024-03-29T02:33:28;97895.20;;;8.10
71081;BMP180;58740;50.672;18.690;2024-03-29T02:36:01;97908.60;;;8.10
71081;BMP180;58740;50.672;18.690;2024-03-29T02:38:33;97910.20;;;8.00
71081;BMP180;58740;50.672;18.690;2024-03-29T02:41:06;97915.40;;;8.00
71081;BMP180;58740;50.672;18.690;2024-03-29T02:43:38;97920.80;;;8.00
71081;BMP180;58740;50.672;18.690;2024-03-29T02:46:11;97916.40;;;7.90
71081;BMP180;58740;50.672;18.690;2024-03-29T02:48:44;97925.80;;;7.90
71081;BMP180;58740;50.672;18.690;2024-03-29T02:51:16;97927.60;;;7.88
71081;BMP180;58740;50.672;18.690;2024-03-29T02:53:49;97933.00;;;7.80
71081;BMP180;58740;50.672;18.690;2024-03-29T02:56:22;97930.40;;;7.80
71081;BMP180;58740;50.672;18.690;2024-03-29T02:58:55;97927.60;;;7.78
71081;BMP180;58740;50.672;18.690;2024-03-29T03:01:28;97935.40;;;7.70
71081;BMP180;58740;50.672;18.690;2024-03-29T03:04:00;97933.00;;;7.70
71081;BMP180;58740;50.672;18.690;2024-03-29T03:06:33;97929.40;;;7.60
71081;BMP180;58740;50.672;18.690;2024-03-29T03:09:05;97929.80;;;7.58
71081;BMP180;58740;50.672;18.690;2024-03-29T03:11:56;97931.60;;;7.50
71081;BMP180;58740;50.672;18.690;2024-03-29T03:14:28;97935.20;;;7.50
71081;BMP180;58740;50.672;18.690;2024-03-29T03:17:01;97935.00;;;7.40
71081;BMP180;58740;50.672;18.690;2024-03-29T03:19:33;97937.40;;;7.50
71081;BMP180;58740;50.672;18.690;2024-03-29T03:22:06;97933.80;;;7.50
71081;BMP180;58740;50.672;18.690;2024-03-29T03:24:39;97929.00;;;7.40
71081;BMP180;58740;50.672;18.690;2024-03-29T03:27:11;97931.80;;;7.50
71081;BMP180;58740;50.672;18.690;2024-03-29T03:29:44;97932.00;;;7.50
71081;BMP180;58740;50.672;18.690;2024-03-29T03:32:17;97939.40;;;7.54
71081;BMP180;58740;50.672;18.690;2024-03-29T03:34:49;97945.20;;;7.58
71081;BMP180;58740;50.672;18.690;2024-03-29T03:37:22;97947.00;;;7.50
71081;BMP180;58740;50.672;18.690;2024-03-29T03:39:54;97944.40;;;7.56
71081;BMP180;58740;50.672;18.690;2024-03-29T03:42:37;97943.80;;;7.60
71081;BMP180;58740;50.672;18.690;2024-03-29T03:45:12;97937.60;;;7.58
71081;BMP180;58740;50.672;18.690;2024-03-29T03:47:49;97941.40;;;7.50
71081;BMP180;58740;50.672;18.690;2024-03-29T03:50:21;97942.60;;;7.50
71081;BMP180;58740;50.672;18.690;2024-03-29T03:52:54;97942.60;;;7.50
71081;BMP180;58740;50.672;18.690;2024-03-29T03:55:26;97939.40;;;7.50
71081;BMP180;58740;50.672;18.690;2024-03-29T03:57:59;97933.60;;;7.50
71081;BMP180;58740;50.672;18.690;2024-03-29T04:00:32;97932.40;;;7.50
71081;BMP180;58740;50.672;18.690;2024-03-29T04:03:06;97927.60;;;7.50
71081;BMP180;58740;50.672;18.690;2024-03-29T04:05:39;97930.00;;;7.50
71081;BMP180;58740;50.672;18.690;2024-03-29T04:08:11;97916.00;;;7.50
71081;BMP180;58740;50.672;18.690;2024-03-29T04:10:45;97919.80;;;7.40
71081;BMP180;58740;50.672;18.690;2024-03-29T04:13:19;97925.40;;;7.40
71081;BMP180;58740;50.672;18.690;2024-03-29T04:15:51;97923.00;;;7.40
71081;BMP180;58740;50.672;18.690;2024-03-29T04:18:24;97915.80;;;7.40
71081;BMP180;58740;50.672;18.690;2024-03-29T04:20:59;97921.20;;;7.40
71081;BMP180;58740;50.672;18.690;2024-03-29T04:23:32;97927.60;;;7.34
71081;BMP180;58740;50.672;18.690;2024-03-29T04:26:05;97936.20;;;7.30
71081;BMP180;58740;50.672;18.690;2024-03-29T04:28:38;97943.00;;;7.30
71081;BMP180;58740;50.672;18.690;2024-03-29T04:31:10;97950.40;;;7.24
71081;BMP180;58740;50.672;18.690;2024-03-29T04:33:43;97952.80;;;7.20
71081;BMP180;58740;50.672;18.690;2024-03-29T04:36:15;97965.00;;;7.24
71081;BMP180;58740;50.672;18.690;2024-03-29T04:38:48;97973.20;;;7.20
71081;BMP180;58740;50.672;18.690;2024-03-29T04:41:21;97981.20;;;7.20
71081;BMP180;58740;50.672;18.690;2024-03-29T04:43:54;97994.40;;;7.20
71081;BMP180;58740;50.672;18.690;2024-03-29T04:46:27;98001.20;;;7.20
71081;BMP180;58740;50.672;18.690;2024-03-29T04:49:01;97994.00;;;7.10
71081;BMP180;58740;50.672;18.690;2024-03-29T04:51:33;97994.20;;;7.10
71081;BMP180;58740;50.672;18.690;2024-03-29T04:54:06;98001.40;;;7.10
71081;BMP180;58740;50.672;18.690;2024-03-29T04:56:39;98010.00;;;7.10
71081;BMP180;58740;50.672;18.690;2024-03-29T04:59:11;98017.00;;;7.10
71081;BMP180;58740;50.672;18.690;2024-03-29T05:01:44;98012.20;;;7.10
71081;BMP180;58740;50.672;18.690;2024-03-29T05:04:21;98016.60;;;7.10
71081;BMP180;58740;50.672;18.690;2024-03-29T05:06:58;98019.80;;;7.10
71081;BMP180;58740;50.672;18.690;2024-03-29T05:09:31;98017.40;;;7.10
71081;BMP180;58740;50.672;18.690;2024-03-29T05:12:03;98011.20;;;7.10
71081;BMP180;58740;50.672;18.690;2024-03-29T05:14:36;98006.20;;;7.10
71081;BMP180;58740;50.672;18.690;2024-03-29T05:17:09;98009.40;;;7.14
71081;BMP180;58740;50.672;18.690;2024-03-29T05:19:41;98010.40;;;7.14
71081;BMP180;58740;50.672;18.690;2024-03-29T05:22:13;98022.80;;;7.20
71081;BMP180;58740;50.672;18.690;2024-03-29T05:24:46;98026.60;;;7.30
71081;BMP180;58740;50.672;18.690;2024-03-29T05:27:19;98046.00;;;7.30
71081;BMP180;58740;50.672;18.690;2024-03-29T05:29:52;98046.60;;;7.32
71081;BMP180;58740;50.672;18.690;2024-03-29T05:32:24;98046.00;;;7.40
71081;BMP180;58740;50.672;18.690;2024-03-29T05:34:57;98045.20;;;7.40
71081;BMP180;58740;50.672;18.690;2024-03-29T05:37:30;98044.00;;;7.50
71081;BMP180;58740;50.672;18.690;2024-03-29T05:40:03;98049.40;;;7.60
71081;BMP180;58740;50.672;18.690;2024-03-29T05:42:38;98053.40;;;7.70
71081;BMP180;58740;50.672;18.690;2024-03-29T05:45:26;98051.20;;;7.80
71081;BMP180;58740;50.672;18.690;2024-03-29T05:48:00;98056.20;;;7.80
71081;BMP180;58740;50.672;18.690;2024-03-29T05:50:32;98057.40;;;7.90
71081;BMP180;58740;50.672;18.690;2024-03-29T05:53:05;98071.20;;;8.00
71081;BMP180;58740;50.672;18.690;2024-03-29T05:55:38;98068.60;;;8.10
71081;BMP180;58740;50.672;18.690;2024-03-29T05:58:11;98061.80;;;8.12
71081;BMP180;58740;50.672;18.690;2024-03-29T06:00:48;98062.20;;;8.20
71081;BMP180;58740;50.672;18.690;2024-03-29T06:03:20;98062.20;;;8.30
71081;BMP180;58740;50.672;18.690;2024-03-29T06:05:53;98073.20;;;8.36
71081;BMP180;58740;50.672;18.690;2024-03-29T06:08:26;98080.20;;;8.40
71081;BMP180;58740;50.672;18.690;2024-03-29T06:10:58;98070.80;;;8.50
71081;BMP180;58740;50.672;18.690;2024-03-29T06:13:32;98079.40;;;8.60
71081;BMP180;58740;50.672;18.690;2024-03-29T06:16:19;98070.00;;;8.60
71081;BMP180;58740;50.672;18.690;2024-03-29T06:19:10;98067.00;;;8.68
71081;BMP180;58740;50.672;18.690;2024-03-29T06:21:42;98061.20;;;8.70
71081;BMP180;58740;50.672;18.690;2024-03-29T06:24:15;98074.20;;;8.70
71081;BMP180;58740;50.672;18.690;2024-03-29T06:26:48;98085.00;;;8.80
71081;BMP180;58740;50.672;18.690;2024-03-29T06:29:21;98087.60;;;8.80
71081;BMP180;58740;50.672;18.690;2024-03-29T06:31:53;98081.00;;;8.90
71081;BMP180;58740;50.672;18.690;2024-03-29T06:34:26;98079.20;;;8.96
71081;BMP180;58740;50.672;18.690;2024-03-29T06:37:01;98073.80;;;9.00
71081;BMP180;58740;50.672;18.690;2024-03-29T06:39:34;98071.20;;;9.10
71081;BMP180;58740;50.672;18.690;2024-03-29T06:42:08;98068.80;;;9.12
71081;BMP180;58740;50.672;18.690;2024-03-29T06:44:41;98071.40;;;9.20
71081;BMP180;58740;50.672;18.690;2024-03-29T06:47:14;98071.60;;;9.20
71081;BMP180;58740;50.672;18.690;2024-03-29T06:49:47;98069.40;;;9.30
71081;BMP180;58740;50.672;18.690;2024-03-29T06:52:19;98063.80;;;9.30
71081;BMP180;58740;50.672;18.690;2024-03-29T06:54:52;98060.20;;;9.38
71081;BMP180;58740;50.672;18.690;2024-03-29T06:57:25;98064.60;;;9.40
71081;BMP180;58740;50.672;18.690;2024-03-29T07:00:02;98066.20;;;9.40
71081;BMP180;58740;50.672;18.690;2024-03-29T07:02:35;98061.80;;;9.40
71081;BMP180;58740;50.672;18.690;2024-03-29T07:05:09;98068.60;;;9.50
71081;BMP180;58740;50.672;18.690;2024-03-29T07:07:42;98077.40;;;9.56
71081;BMP180;58740;50.672;18.690;2024-03-29T07:10:17;98074.80;;;9.60
71081;BMP180;58740;50.672;18.690;2024-03-29T07:12:50;98064.80;;;9.70
71081;BMP180;58740;50.672;18.690;2024-03-29T07:15:22;98064.20;;;9.80
71081;BMP180;58740;50.672;18.690;2024-03-29T07:17:55;98077.20;;;9.82
71081;BMP180;58740;50.672;18.690;2024-03-29T07:20:30;98086.40;;;9.90
71081;BMP180;58740;50.672;18.690;2024-03-29T07:23:03;98086.40;;;10.00
71081;BMP180;58740;50.672;18.690;2024-03-29T07:25:35;98084.20;;;10.00
71081;BMP180;58740;50.672;18.690;2024-03-29T07:28:08;98084.60;;;10.10
71081;BMP180;58740;50.672;18.690;2024-03-29T07:30:41;98086.80;;;10.12
71081;BMP180;58740;50.672;18.690;2024-03-29T07:33:13;98090.40;;;10.20
71081;BMP180;58740;50.672;18.690;2024-03-29T07:35:46;98099.80;;;10.26
71081;BMP180;58740;50.672;18.690;2024-03-29T07:38:19;98108.00;;;10.30
71081;BMP180;58740;50.672;18.690;2024-03-29T07:40:52;98114.80;;;10.40
71081;BMP180;58740;50.672;18.690;2024-03-29T07:43:34;98112.00;;;10.42
71081;BMP180;58740;50.672;18.690;2024-03-29T07:46:09;98099.40;;;10.50
71081;BMP180;58740;50.672;18.690;2024-03-29T07:48:41;98098.00;;;10.48
71081;BMP180;58740;50.672;18.690;2024-03-29T07:51:14;98099.80;;;10.50
71081;BMP180;58740;50.672;18.690;2024-03-29T07:53:46;98104.00;;;10.50
71081;BMP180;58740;50.672;18.690;2024-03-29T07:56:19;98103.00;;;10.54
71081;BMP180;58740;50.672;18.690;2024-03-29T07:58:54;98115.20;;;10.60
71081;BMP180;58740;50.672;18.690;2024-03-29T08:01:27;98118.20;;;10.60
71081;BMP180;58740;50.672;18.690;2024-03-29T08:04:12;98118.20;;;10.70
71081;BMP180;58740;50.672;18.690;2024-03-29T08:06:45;98100.80;;;10.70
71081;BMP180;58740;50.672;18.690;2024-03-29T08:09:17;98113.20;;;10.80
71081;BMP180;58740;50.672;18.690;2024-03-29T08:11:50;98106.00;;;10.84
71081;BMP180;58740;50.672;18.690;2024-03-29T08:14:22;98106.20;;;10.90
71081;BMP180;58740;50.672;18.690;2024-03-29T08:16:57;98110.40;;;11.00
71081;BMP180;58740;50.672;18.690;2024-03-29T08:19:33;98106.60;;;11.06
71081;BMP180;58740;50.672;18.690;2024-03-29T08:22:06;98097.60;;;11.12
71081;BMP180;58740;50.672;18.690;2024-03-29T08:24:41;98094.60;;;11.22
71081;BMP180;58740;50.672;18.690;2024-03-29T08:27:16;98102.40;;;11.30
71081;BMP180;58740;50.672;18.690;2024-03-29T08:29:49;98102.00;;;11.40
71081;BMP180;58740;50.672;18.690;2024-03-29T08:32:24;98101.00;;;11.40
71081;BMP180;58740;50.672;18.690;2024-03-29T08:34:56;98108.00;;;11.42
71081;BMP180;58740;50.672;18.690;2024-03-29T08:37:29;98114.40;;;11.46
71081;BMP180;58740;50.672;18.690;2024-03-29T08:40:03;98117.00;;;11.50
71081;BMP180;58740;50.672;18.690;2024-03-29T08:42:36;98115.20;;;11.52
71081;BMP180;58740;50.672;18.690;2024-03-29T08:45:10;98118.60;;;11.60
71081;BMP180;58740;50.672;18.690;2024-03-29T08:47:44;98113.00;;;11.70
71081;BMP180;58740;50.672;18.690;2024-03-29T08:50:19;98109.60;;;11.88
71081;BMP180;58740;50.672;18.690;2024-03-29T08:52:54;98113.00;;;12.00
71081;BMP180;58740;50.672;18.690;2024-03-29T08:55:26;98126.00;;;12.10
71081;BMP180;58740;50.672;18.690;2024-03-29T08:57:59;98125.20;;;12.20
71081;BMP180;58740;50.672;18.690;2024-03-29T09:00:33;98125.20;;;12.30
71081;BMP180;58740;50.672;18.690;2024-03-29T09:03:06;98124.60;;;12.40
71081;BMP180;58740;50.672;18.690;2024-03-29T09:05:38;98124.20;;;12.40
71081;BMP180;58740;50.672;18.690;2024-03-29T09:08:11;98123.40;;;12.50
71081;BMP180;58740;50.672;18.690;2024-03-29T09:10:45;98115.00;;;12.60
71081;BMP180;58740;50.672;18.690;2024-03-29T09:13:18;98108.20;;;12.50
71081;BMP180;58740;50.672;18.690;2024-03-29T09:15:51;98117.80;;;12.50
71081;BMP180;58740;50.672;18.690;2024-03-29T09:18:24;98113.20;;;12.50
71081;BMP180;58740;50.672;18.690;2024-03-29T09:21:01;98105.60;;;12.50
71081;BMP180;58740;50.672;18.690;2024-03-29T09:23:34;98107.80;;;12.60
71081;BMP180;58740;50.672;18.690;2024-03-29T09:26:08;98101.60;;;12.60
71081;BMP180;58740;50.672;18.690;2024-03-29T09:28:41;98094.20;;;12.70
71081;BMP180;58740;50.672;18.690;2024-03-29T09:31:13;98087.20;;;12.80
71081;BMP180;58740;50.672;18.690;2024-03-29T09:33:46;98088.80;;;12.90
71081;BMP180;58740;50.672;18.690;2024-03-29T09:36:24;98086.40;;;12.90
71081;BMP180;58740;50.672;18.690;2024-03-29T09:38:57;98085.60;;;13.00
71081;BMP180;58740;50.672;18.690;2024-03-29T09:41:30;98095.20;;;13.10
71081;BMP180;58740;50.672;18.690;2024-03-29T09:44:06;98101.00;;;13.20
71081;BMP180;58740;50.672;18.690;2024-03-29T09:46:39;98102.40;;;13.20
71081;BMP180;58740;50.672;18.690;2024-03-29T09:49:14;98094.80;;;13.20
71081;BMP180;58740;50.672;18.690;2024-03-29T09:51:48;98097.40;;;13.20
71081;BMP180;58740;50.672;18.690;2024-03-29T09:54:22;98095.00;;;13.20
71081;BMP180;58740;50.672;18.690;2024-03-29T09:56:55;98096.00;;;13.30
71081;BMP180;58740;50.672;18.690;2024-03-29T09:59:29;98100.40;;;13.30
71081;BMP180;58740;50.672;18.690;2024-03-29T10:02:04;98094.60;;;13.40
71081;BMP180;58740;50.672;18.690;2024-03-29T10:04:42;98083.80;;;13.50
71081;BMP180;58740;50.672;18.690;2024-03-29T10:07:15;98084.40;;;13.60
71081;BMP180;58740;50.672;18.690;2024-03-29T10:09:50;98077.00;;;13.60
71081;BMP180;58740;50.672;18.690;2024-03-29T10:12:23;98076.00;;;13.70
71081;BMP180;58740;50.672;18.690;2024-03-29T10:14:57;98068.20;;;13.80
71081;BMP180;58740;50.672;18.690;2024-03-29T10:17:37;98074.80;;;13.90
71081;BMP180;58740;50.672;18.690;2024-03-29T10:20:14;98070.80;;;13.90
71081;BMP180;58740;50.672;18.690;2024-03-29T10:22:48;98077.00;;;13.90
71081;BMP180;58740;50.672;18.690;2024-03-29T10:25:20;98061.00;;;14.00
71081;BMP180;58740;50.672;18.690;2024-03-29T10:27:53;98066.40;;;14.00
71081;BMP180;58740;50.672;18.690;2024-03-29T10:30:27;98065.80;;;14.04
71081;BMP180;58740;50.672;18.690;2024-03-29T10:33:01;98055.00;;;14.04
71081;BMP180;58740;50.672;18.690;2024-03-29T10:35:37;98060.40;;;14.10
71081;BMP180;58740;50.672;18.690;2024-03-29T10:38:12;98053.20;;;14.10
71081;BMP180;58740;50.672;18.690;2024-03-29T10:40:45;98041.20;;;14.04
71081;BMP180;58740;50.672;18.690;2024-03-29T10:43:20;98045.20;;;14.10
71081;BMP180;58740;50.672;18.690;2024-03-29T10:45:53;98048.60;;;14.10
71081;BMP180;58740;50.672;18.690;2024-03-29T10:48:31;98043.20;;;14.10
71081;BMP180;58740;50.672;18.690;2024-03-29T10:51:05;98036.20;;;14.20
71081;BMP180;58740;50.672;18.690;2024-03-29T10:53:41;98028.00;;;14.20
71081;BMP180;58740;50.672;18.690;2024-03-29T10:56:15;98036.00;;;14.20
71081;BMP180;58740;50.672;18.690;2024-03-29T10:58:54;98031.60;;;14.28
71081;BMP180;58740;50.672;18.690;2024-03-29T11:01:30;98024.00;;;14.30
71081;BMP180;58740;50.672;18.690;2024-03-29T11:04:16;98021.00;;;14.40
71081;BMP180;58740;50.672;18.690;2024-03-29T11:06:57;98014.40;;;14.42
71081;BMP180;58740;50.672;18.690;2024-03-29T11:09:32;97997.00;;;14.50
71081;BMP180;58740;50.672;18.690;2024-03-29T11:12:10;98011.00;;;14.50
71081;BMP180;58740;50.672;18.690;2024-03-29T11:14:48;98015.20;;;14.50
71081;BMP180;58740;50.672;18.690;2024-03-29T11:17:23;98016.40;;;14.60
71081;BMP180;58740;50.672;18.690;2024-03-29T11:19:55;98019.20;;;14.56
71081;BMP180;58740;50.672;18.690;2024-03-29T11:22:29;98012.60;;;14.56
71081;BMP180;58740;50.672;18.690;2024-03-29T11:25:03;98009.00;;;14.60
71081;BMP180;58740;50.672;18.690;2024-03-29T11:27:36;98017.20;;;14.60
71081;BMP180;58740;50.672;18.690;2024-03-29T11:30:12;98005.80;;;14.60
71081;BMP180;58740;50.672;18.690;2024-03-29T11:32:48;97993.20;;;14.70
71081;BMP180;58740;50.672;18.690;2024-03-29T11:35:29;98000.20;;;14.70
71081;BMP180;58740;50.672;18.690;2024-03-29T11:38:05;97984.60;;;14.80
71081;BMP180;58740;50.672;18.690;2024-03-29T11:40:37;97990.00;;;14.80
71081;BMP180;58740;50.672;18.690;2024-03-29T11:43:10;97988.80;;;14.80
71081;BMP180;58740;50.672;18.690;2024-03-29T11:45:43;97968.60;;;14.80
71081;BMP180;58740;50.672;18.690;2024-03-29T11:48:18;97971.80;;;14.80
71081;BMP180;58740;50.672;18.690;2024-03-29T11:50:53;97967.20;;;14.90
71081;BMP180;58740;50.672;18.690;2024-03-29T11:53:26;97959.40;;;14.96
71081;BMP180;58740;50.672;18.690;2024-03-29T11:56:02;97968.80;;;15.00
71081;BMP180;58740;50.672;18.690;2024-03-29T11:58:36;97964.80;;;15.08
71081;BMP180;58740;50.672;18.690;2024-03-29T12:01:09;97951.80;;;15.10
71081;BMP180;58740;50.672;18.690;2024-03-29T12:03:45;97959.00;;;15.10
71081;BMP180;58740;50.672;18.690;2024-03-29T12:06:19;97957.60;;;15.20
71081;BMP180;58740;50.672;18.690;2024-03-29T12:08:52;97946.20;;;15.24
71081;BMP180;58740;50.672;18.690;2024-03-29T12:11:28;97935.20;;;15.30
71081;BMP180;58740;50.672;18.690;2024-03-29T12:14:01;97941.20;;;15.30
71081;BMP180;58740;50.672;18.690;2024-03-29T12:16:45;97938.20;;;15.40
71081;BMP180;58740;50.672;18.690;2024-03-29T12:19:27;97943.60;;;15.46
71081;BMP180;58740;50.672;18.690;2024-03-29T12:22:01;97940.80;;;15.50
71081;BMP180;58740;50.672;18.690;2024-03-29T12:24:34;97941.00;;;15.50
71081;BMP180;58740;50.672;18.690;2024-03-29T12:27:07;97933.40;;;15.52
71081;BMP180;58740;50.672;18.690;2024-03-29T12:29:41;97930.20;;;15.58
71081;BMP180;58740;50.672;18.690;2024-03-29T12:32:13;97931.20;;;15.60
71081;BMP180;58740;50.672;18.690;2024-03-29T12:34:50;97933.40;;;15.68
71081;BMP180;58740;50.672;18.690;2024-03-29T12:37:25;97933.80;;;15.70
71081;BMP180;58740;50.672;18.690;2024-03-29T12:40:02;97944.60;;;15.80
71081;BMP180;58740;50.672;18.690;2024-03-29T12:42:43;97955.00;;;15.80
71081;BMP180;58740;50.672;18.690;2024-03-29T12:45:16;97942.20;;;15.80
71081;BMP180;58740;50.672;18.690;2024-03-29T12:47:50;97945.60;;;15.80
71081;BMP180;58740;50.672;18.690;2024-03-29T12:50:28;97940.20;;;15.80
71081;BMP180;58740;50.672;18.690;2024-03-29T12:53:05;97939.80;;;15.80
71081;BMP180;58740;50.672;18.690;2024-03-29T12:55:41;97931.60;;;15.82
71081;BMP180;58740;50.672;18.690;2024-03-29T12:58:18;97924.60;;;15.90
71081;BMP180;58740;50.672;18.690;2024-03-29T13:00:53;97922.80;;;15.90
71081;BMP180;58740;50.672;18.690;2024-03-29T13:03:26;97923.40;;;15.80
71081;BMP180;58740;50.672;18.690;2024-03-29T13:06:02;97931.40;;;15.80
71081;BMP180;58740;50.672;18.690;2024-03-29T13:08:34;97929.60;;;15.80
71081;BMP180;58740;50.672;18.690;2024-03-29T13:11:07;97911.20;;;15.80
71081;BMP180;58740;50.672;18.690;2024-03-29T13:13:41;97921.60;;;15.84
71081;BMP180;58740;50.672;18.690;2024-03-29T13:16:15;97921.60;;;15.90
71081;BMP180;58740;50.672;18.690;2024-03-29T13:18:48;97916.00;;;15.90
71081;BMP180;58740;50.672;18.690;2024-03-29T13:21:23;97918.00;;;16.00
71081;BMP180;58740;50.672;18.690;2024-03-29T13:23:57;97918.40;;;16.00
71081;BMP180;58740;50.672;18.690;2024-03-29T13:26:31;97923.20;;;16.00
71081;BMP180;58740;50.672;18.690;2024-03-29T13:29:05;97920.40;;;16.00
71081;BMP180;58740;50.672;18.690;2024-03-29T13:31:43;97924.80;;;16.00
71081;BMP180;58740;50.672;18.690;2024-03-29T13:34:16;97922.80;;;16.00
71081;BMP180;58740;50.672;18.690;2024-03-29T13:36:50;97928.80;;;16.00
71081;BMP180;58740;50.672;18.690;2024-03-29T13:39:24;97925.20;;;16.00
71081;BMP180;58740;50.672;18.690;2024-03-29T13:41:57;97918.60;;;16.00
71081;BMP180;58740;50.672;18.690;2024-03-29T13:44:33;97924.40;;;16.00
71081;BMP180;58740;50.672;18.690;2024-03-29T13:47:07;97918.60;;;16.10
71081;BMP180;58740;50.672;18.690;2024-03-29T13:49:48;97930.60;;;16.10
71081;BMP180;58740;50.672;18.690;2024-03-29T13:52:24;97932.80;;;16.20
71081;BMP180;58740;50.672;18.690;2024-03-29T13:54:59;97932.60;;;16.20
71081;BMP180;58740;50.672;18.690;2024-03-29T13:57:33;97921.40;;;16.20
71081;BMP180;58740;50.672;18.690;2024-03-29T14:00:13;97922.20;;;16.20
71081;BMP180;58740;50.672;18.690;2024-03-29T14:02:48;97916.40;;;16.20
71081;BMP180;58740;50.672;18.690;2024-03-29T14:05:21;97905.20;;;16.30
71081;BMP180;58740;50.672;18.690;2024-03-29T14:07:55;97906.20;;;16.30
71081;BMP180;58740;50.672;18.690;2024-03-29T14:10:28;97909.40;;;16.30
71081;BMP180;58740;50.672;18.690;2024-03-29T14:13:02;97909.20;;;16.30
71081;BMP180;58740;50.672;18.690;2024-03-29T14:15:37;97910.00;;;16.30
71081;BMP180;58740;50.672;18.690;2024-03-29T14:18:13;97909.40;;;16.30
71081;BMP180;58740;50.672;18.690;2024-03-29T14:20:47;97905.60;;;16.30
71081;BMP180;58740;50.672;18.690;2024-03-29T14:23:21;97908.40;;;16.30
71081;BMP180;58740;50.672;18.690;2024-03-29T14:25:57;97899.80;;;16.30
71081;BMP180;58740;50.672;18.690;2024-03-29T14:28:30;97911.00;;;16.30
71081;BMP180;58740;50.672;18.690;2024-03-29T14:31:03;97920.20;;;16.32
71081;BMP180;58740;50.672;18.690;2024-03-29T14:33:38;97911.00;;;16.30
71081;BMP180;58740;50.672;18.690;2024-03-29T14:36:12;97903.60;;;16.30
71081;BMP180;58740;50.672;18.690;2024-03-29T14:38:45;97909.60;;;16.30
71081;BMP180;58740;50.672;18.690;2024-03-29T14:41:20;97907.60;;;16.30